sensor_id;sensor_type;location;lat;lon;timestamp;temperature;humidity
67586;SHT31;55785;47.946;20.540;2022-07-29T00:00:40;20.12;57.96
67586;SHT31;55785;47.946;20.540;2022-07-29T00:03:06;19.94;58.55
67586;SHT31;55785;47.946;20.540;2022-07-29T00:05:31;20.00;58.25
67586;SHT31;55785;47.946;20.540;2022-07-29T00:07:56;20.00;58.48
67586;SHT31;55785;47.946;20.540;2022-07-29T00:10:22;19.98;58.75
67586;SHT31;55785;47.946;20.540;2022-07-29T00:12:47;19.75;58.65
67586;SHT31;55785;47.946;20.540;2022-07-29T00:15:13;19.74;58.38
67586;SHT31;55785;47.946;20.540;2022-07-29T00:17:39;19.59;59.20
67586;SHT31;55785;47.946;20.540;2022-07-29T00:20:04;19.60;59.78
67586;SHT31;55785;47.946;20.540;2022-07-29T00:22:30;19.34;59.85
67586;SHT31;55785;47.946;20.540;2022-07-29T00:24:55;19.43;60.02
67586;SHT31;55785;47.946;20.540;2022-07-29T00:27:21;19.37;59.63
67586;SHT31;55785;47.946;20.540;2022-07-29T00:29:46;19.34;59.88
67586;SHT31;55785;47.946;20.540;2022-07-29T00:32:11;19.27;60.32
67586;SHT31;55785;47.946;20.540;2022-07-29T00:34:37;19.29;59.90
67586;SHT31;55785;47.946;20.540;2022-07-29T00:37:02;19.27;60.00
67586;SHT31;55785;47.946;20.540;2022-07-29T00:39:27;19.03;61.08
67586;SHT31;55785;47.946;20.540;2022-07-29T00:41:53;19.16;60.82
67586;SHT31;55785;47.946;20.540;2022-07-29T00:44:18;19.09;61.07
67586;SHT31;55785;47.946;20.540;2022-07-29T00:46:43;18.94;61.12
67586;SHT31;55785;47.946;20.540;2022-07-29T00:49:09;18.87;61.56
67586;SHT31;55785;47.946;20.540;2022-07-29T00:51:36;18.85;61.63
67586;SHT31;55785;47.946;20.540;2022-07-29T00:54:02;18.63;62.59
67586;SHT31;55785;47.946;20.540;2022-07-29T00:56:30;18.68;62.26
67586;SHT31;55785;47.946;20.540;2022-07-29T00:58:56;18.48;62.57
67586;SHT31;55785;47.946;20.540;2022-07-29T01:01:22;18.43;63.14
67586;SHT31;55785;47.946;20.540;2022-07-29T01:03:47;18.41;63.10
67586;SHT31;55785;47.946;20.540;2022-07-29T01:06:12;18.30;63.81
67586;SHT31;55785;47.946;20.540;2022-07-29T01:08:38;18.36;63.13
67586;SHT31;55785;47.946;20.540;2022-07-29T01:11:04;18.41;62.96
67586;SHT31;55785;47.946;20.540;2022-07-29T01:13:30;18.50;63.48
67586;SHT31;55785;47.946;20.540;2022-07-29T01:16:03;18.29;62.64
67586;SHT31;55785;47.946;20.540;2022-07-29T01:18:39;18.32;62.69
67586;SHT31;55785;47.946;20.540;2022-07-29T01:21:40;18.40;62.39
67586;SHT31;55785;47.946;20.540;2022-07-29T01:26:58;18.23;63.34
67586;SHT31;55785;47.946;20.540;2022-07-29T01:29:41;18.20;63.62
67586;SHT31;55785;47.946;20.540;2022-07-29T01:32:12;18.16;63.44
67586;SHT31;55785;47.946;20.540;2022-07-29T01:34:47;18.14;63.19
67586;SHT31;55785;47.946;20.540;2022-07-29T01:37:23;18.22;62.81
67586;SHT31;55785;47.946;20.540;2022-07-29T01:39:52;18.14;63.46
67586;SHT31;55785;47.946;20.540;2022-07-29T01:42:34;18.05;63.62
67586;SHT31;55785;47.946;20.540;2022-07-29T01:45:07;18.06;63.87
67586;SHT31;55785;47.946;20.540;2022-07-29T01:50:43;18.14;63.80
67586;SHT31;55785;47.946;20.540;2022-07-29T01:53:12;18.06;63.99
67586;SHT31;55785;47.946;20.540;2022-07-29T01:55:42;17.95;64.69
67586;SHT31;55785;47.946;20.540;2022-07-29T01:58:10;18.03;64.17
67586;SHT31;55785;47.946;20.540;2022-07-29T02:00:37;17.86;64.98
67586;SHT31;55785;47.946;20.540;2022-07-29T02:03:08;17.88;64.66
67586;SHT31;55785;47.946;20.540;2022-07-29T02:05:35;17.86;65.03
67586;SHT31;55785;47.946;20.540;2022-07-29T02:08:04;17.71;64.41
67586;SHT31;55785;47.946;20.540;2022-07-29T02:10:32;17.75;65.11
67586;SHT31;55785;47.946;20.540;2022-07-29T02:12:59;17.76;64.85
67586;SHT31;55785;47.946;20.540;2022-07-29T02:15:28;17.67;65.62
67586;SHT31;55785;47.946;20.540;2022-07-29T02:18:06;17.75;65.69
67586;SHT31;55785;47.946;20.540;2022-07-29T02:20:33;17.78;65.76
67586;SHT31;55785;47.946;20.540;2022-07-29T02:22:59;17.65;66.16
67586;SHT31;55785;47.946;20.540;2022-07-29T02:25:26;17.71;64.47
67586;SHT31;55785;47.946;20.540;2022-07-29T02:27:53;17.72;65.68
67586;SHT31;55785;47.946;20.540;2022-07-29T02:30:20;17.61;66.49
67586;SHT31;55785;47.946;20.540;2022-07-29T02:32:48;17.64;66.24
67586;SHT31;55785;47.946;20.540;2022-07-29T02:35:15;17.67;66.04
67586;SHT31;55785;47.946;20.540;2022-07-29T02:37:43;17.64;65.53
67586;SHT31;55785;47.946;20.540;2022-07-29T02:40:11;17.52;65.65
67586;SHT31;55785;47.946;20.540;2022-07-29T02:42:38;17.52;66.50
67586;SHT31;55785;47.946;20.540;2022-07-29T02:45:05;17.47;66.61
67586;SHT31;55785;47.946;20.540;2022-07-29T02:47:36;17.55;66.58
67586;SHT31;55785;47.946;20.540;2022-07-29T02:52:52;17.83;65.94
67586;SHT31;55785;47.946;20.540;2022-07-29T02:55:23;17.67;65.85
67586;SHT31;55785;47.946;20.540;2022-07-29T03:00:29;17.67;65.50
67586;SHT31;55785;47.946;20.540;2022-07-29T03:02:58;17.65;65.98
67586;SHT31;55785;47.946;20.540;2022-07-29T03:05:25;17.69;65.65
67586;SHT31;55785;47.946;20.540;2022-07-29T03:07:55;17.69;66.04
67586;SHT31;55785;47.946;20.540;2022-07-29T03:10:23;17.69;66.41
67586;SHT31;55785;47.946;20.540;2022-07-29T03:12:48;17.75;65.81
67586;SHT31;55785;47.946;20.540;2022-07-29T03:15:14;17.79;66.37
67586;SHT31;55785;47.946;20.540;2022-07-29T03:17:40;17.75;66.61
67586;SHT31;55785;47.946;20.540;2022-07-29T03:20:07;17.76;66.43
67586;SHT31;55785;47.946;20.540;2022-07-29T03:22:39;17.78;66.80
67586;SHT31;55785;47.946;20.540;2022-07-29T03:25:08;17.83;65.39
67586;SHT31;55785;47.946;20.540;2022-07-29T03:27:34;17.81;65.76
67586;SHT31;55785;47.946;20.540;2022-07-29T03:29:59;17.88;66.12
67586;SHT31;55785;47.946;20.540;2022-07-29T03:32:25;17.83;65.94
67586;SHT31;55785;47.946;20.540;2022-07-29T03:34:50;17.89;65.73
67586;SHT31;55785;47.946;20.540;2022-07-29T03:37:15;17.88;65.79
67586;SHT31;55785;47.946;20.540;2022-07-29T03:39:41;17.97;65.87
67586;SHT31;55785;47.946;20.540;2022-07-29T03:42:10;17.90;65.33
67586;SHT31;55785;47.946;20.540;2022-07-29T03:44:38;17.82;65.48
67586;SHT31;55785;47.946;20.540;2022-07-29T03:47:05;17.85;65.78
67586;SHT31;55785;47.946;20.540;2022-07-29T03:49:32;17.90;66.59
67586;SHT31;55785;47.946;20.540;2022-07-29T03:51:59;17.97;66.88
67586;SHT31;55785;47.946;20.540;2022-07-29T03:54:25;17.99;67.73
67586;SHT31;55785;47.946;20.540;2022-07-29T03:56:52;18.10;67.45
67586;SHT31;55785;47.946;20.540;2022-07-29T03:59:19;18.17;66.65
67586;SHT31;55785;47.946;20.540;2022-07-29T04:01:46;18.22;65.87
67586;SHT31;55785;47.946;20.540;2022-07-29T04:04:11;18.14;66.60
67586;SHT31;55785;47.946;20.540;2022-07-29T04:06:42;18.22;66.63
67586;SHT31;55785;47.946;20.540;2022-07-29T04:09:08;18.29;67.14
67586;SHT31;55785;47.946;20.540;2022-07-29T04:11:34;18.57;66.54
67586;SHT31;55785;47.946;20.540;2022-07-29T04:13:59;18.60;67.99
67586;SHT31;55785;47.946;20.540;2022-07-29T04:16:25;18.60;64.98
67586;SHT31;55785;47.946;20.540;2022-07-29T04:18:50;18.64;65.76
67586;SHT31;55785;47.946;20.540;2022-07-29T04:21:15;18.72;65.80
67586;SHT31;55785;47.946;20.540;2022-07-29T04:23:40;18.79;66.50
67586;SHT31;55785;47.946;20.540;2022-07-29T04:26:06;18.79;67.12
67586;SHT31;55785;47.946;20.540;2022-07-29T04:28:31;18.81;66.75
67586;SHT31;55785;47.946;20.540;2022-07-29T04:30:57;18.92;66.53
67586;SHT31;55785;47.946;20.540;2022-07-29T04:33:22;19.03;67.43
67586;SHT31;55785;47.946;20.540;2022-07-29T04:35:47;19.20;66.25
67586;SHT31;55785;47.946;20.540;2022-07-29T04:38:13;19.45;65.84
67586;SHT31;55785;47.946;20.540;2022-07-29T04:40:38;19.59;67.53
67586;SHT31;55785;47.946;20.540;2022-07-29T04:43:04;19.82;65.22
67586;SHT31;55785;47.946;20.540;2022-07-29T04:45:29;19.95;65.34
67586;SHT31;55785;47.946;20.540;2022-07-29T04:47:55;20.05;65.92
67586;SHT31;55785;47.946;20.540;2022-07-29T04:50:20;20.19;64.78
67586;SHT31;55785;47.946;20.540;2022-07-29T04:52:46;20.33;63.60
67586;SHT31;55785;47.946;20.540;2022-07-29T04:55:11;20.53;64.01
67586;SHT31;55785;47.946;20.540;2022-07-29T04:57:36;20.79;63.55
67586;SHT31;55785;47.946;20.540;2022-07-29T05:00:04;21.01;63.97
67586;SHT31;55785;47.946;20.540;2022-07-29T05:02:29;21.28;62.23
67586;SHT31;55785;47.946;20.540;2022-07-29T05:04:54;21.61;61.71
67586;SHT31;55785;47.946;20.540;2022-07-29T05:07:20;21.86;61.20
67586;SHT31;55785;47.946;20.540;2022-07-29T05:09:45;22.24;60.23
67586;SHT31;55785;47.946;20.540;2022-07-29T05:12:10;22.52;61.34
67586;SHT31;55785;47.946;20.540;2022-07-29T05:14:36;22.65;59.51
67586;SHT31;55785;47.946;20.540;2022-07-29T05:17:01;22.88;58.56
67586;SHT31;55785;47.946;20.540;2022-07-29T05:19:26;22.94;57.09
67586;SHT31;55785;47.946;20.540;2022-07-29T05:21:52;23.34;57.38
67586;SHT31;55785;47.946;20.540;2022-07-29T05:24:17;23.93;54.07
67586;SHT31;55785;47.946;20.540;2022-07-29T05:26:42;24.35;52.85
67586;SHT31;55785;47.946;20.540;2022-07-29T05:29:08;24.57;51.69
67586;SHT31;55785;47.946;20.540;2022-07-29T05:31:33;24.86;51.57
67586;SHT31;55785;47.946;20.540;2022-07-29T05:33:59;25.17;50.38
67586;SHT31;55785;47.946;20.540;2022-07-29T05:36:24;25.25;49.76
67586;SHT31;55785;47.946;20.540;2022-07-29T05:38:50;25.34;49.59
67586;SHT31;55785;47.946;20.540;2022-07-29T05:41:15;25.42;49.85
67586;SHT31;55785;47.946;20.540;2022-07-29T05:43:40;25.45;49.30
67586;SHT31;55785;47.946;20.540;2022-07-29T05:46:06;25.28;50.23
67586;SHT31;55785;47.946;20.540;2022-07-29T05:48:31;25.25;49.82
67586;SHT31;55785;47.946;20.540;2022-07-29T05:50:56;25.28;50.09
67586;SHT31;55785;47.946;20.540;2022-07-29T05:53:22;25.31;49.93
67586;SHT31;55785;47.946;20.540;2022-07-29T05:55:47;25.30;49.87
67586;SHT31;55785;47.946;20.540;2022-07-29T05:58:13;25.25;51.03
67586;SHT31;55785;47.946;20.540;2022-07-29T06:00:38;25.22;50.53
67586;SHT31;55785;47.946;20.540;2022-07-29T06:03:04;25.31;50.78
67586;SHT31;55785;47.946;20.540;2022-07-29T06:05:29;25.61;49.10
67586;SHT31;55785;47.946;20.540;2022-07-29T06:07:54;25.70;48.82
67586;SHT31;55785;47.946;20.540;2022-07-29T06:10:20;25.70;49.32
67586;SHT31;55785;47.946;20.540;2022-07-29T06:12:45;25.75;48.93
67586;SHT31;55785;47.946;20.540;2022-07-29T06:15:10;25.85;50.33
67586;SHT31;55785;47.946;20.540;2022-07-29T06:17:36;25.85;49.91
67586;SHT31;55785;47.946;20.540;2022-07-29T06:20:02;25.75;50.71
67586;SHT31;55785;47.946;20.540;2022-07-29T06:22:27;25.76;49.74
67586;SHT31;55785;47.946;20.540;2022-07-29T06:24:53;25.86;49.95
67586;SHT31;55785;47.946;20.540;2022-07-29T06:27:18;25.85;50.10
67586;SHT31;55785;47.946;20.540;2022-07-29T06:29:43;25.82;50.34
67586;SHT31;55785;47.946;20.540;2022-07-29T06:32:08;25.80;50.69
67586;SHT31;55785;47.946;20.540;2022-07-29T06:34:35;25.89;50.72
67586;SHT31;55785;47.946;20.540;2022-07-29T06:37:00;25.90;49.22
67586;SHT31;55785;47.946;20.540;2022-07-29T06:39:25;25.97;49.97
67586;SHT31;55785;47.946;20.540;2022-07-29T06:41:51;26.10;50.80
67586;SHT31;55785;47.946;20.540;2022-07-29T06:44:17;26.30;50.08
67586;SHT31;55785;47.946;20.540;2022-07-29T06:46:43;26.41;49.96
67586;SHT31;55785;47.946;20.540;2022-07-29T06:49:09;26.41;49.49
67586;SHT31;55785;47.946;20.540;2022-07-29T06:51:34;26.62;49.32
67586;SHT31;55785;47.946;20.540;2022-07-29T06:54:00;26.78;48.98
67586;SHT31;55785;47.946;20.540;2022-07-29T06:56:25;26.69;49.08
67586;SHT31;55785;47.946;20.540;2022-07-29T06:58:50;26.69;50.15
67586;SHT31;55785;47.946;20.540;2022-07-29T07:01:16;26.62;50.18
67586;SHT31;55785;47.946;20.540;2022-07-29T07:03:41;26.45;49.74
67586;SHT31;55785;47.946;20.540;2022-07-29T07:06:06;26.64;49.45
67586;SHT31;55785;47.946;20.540;2022-07-29T07:08:32;26.75;50.17
67586;SHT31;55785;47.946;20.540;2022-07-29T07:10:57;26.84;49.51
67586;SHT31;55785;47.946;20.540;2022-07-29T07:13:23;26.82;48.78
67586;SHT31;55785;47.946;20.540;2022-07-29T07:15:48;26.81;48.17
67586;SHT31;55785;47.946;20.540;2022-07-29T07:18:15;26.78;49.46
67586;SHT31;55785;47.946;20.540;2022-07-29T07:20:41;26.68;50.03
67586;SHT31;55785;47.946;20.540;2022-07-29T07:23:06;26.72;49.28
67586;SHT31;55785;47.946;20.540;2022-07-29T07:25:32;26.59;49.52
67586;SHT31;55785;47.946;20.540;2022-07-29T07:27:57;26.62;48.88
67586;SHT31;55785;47.946;20.540;2022-07-29T07:30:22;26.58;49.86
67586;SHT31;55785;47.946;20.540;2022-07-29T07:32:48;26.59;49.04
67586;SHT31;55785;47.946;20.540;2022-07-29T07:35:14;26.57;50.35
67586;SHT31;55785;47.946;20.540;2022-07-29T07:37:39;26.67;49.11
67586;SHT31;55785;47.946;20.540;2022-07-29T07:40:05;26.76;49.05
67586;SHT31;55785;47.946;20.540;2022-07-29T07:42:33;26.65;48.85
67586;SHT31;55785;47.946;20.540;2022-07-29T07:44:59;26.57;49.63
67586;SHT31;55785;47.946;20.540;2022-07-29T07:47:24;26.62;49.08
67586;SHT31;55785;47.946;20.540;2022-07-29T07:49:50;26.69;48.88
67586;SHT31;55785;47.946;20.540;2022-07-29T07:52:17;26.88;49.37
67586;SHT31;55785;47.946;20.540;2022-07-29T07:54:42;27.37;48.51
67586;SHT31;55785;47.946;20.540;2022-07-29T07:57:08;27.68;46.70
67586;SHT31;55785;47.946;20.540;2022-07-29T07:59:34;28.02;47.98
67586;SHT31;55785;47.946;20.540;2022-07-29T08:01:59;28.43;46.08
67586;SHT31;55785;47.946;20.540;2022-07-29T08:04:25;28.60;45.12
67586;SHT31;55785;47.946;20.540;2022-07-29T08:06:50;28.66;44.26
67586;SHT31;55785;47.946;20.540;2022-07-29T08:09:15;28.53;44.87
67586;SHT31;55785;47.946;20.540;2022-07-29T08:11:41;28.57;44.12
67586;SHT31;55785;47.946;20.540;2022-07-29T08:14:06;28.71;45.42
67586;SHT31;55785;47.946;20.540;2022-07-29T08:16:32;29.22;44.04
67586;SHT31;55785;47.946;20.540;2022-07-29T08:18:57;29.59;44.29
67586;SHT31;55785;47.946;20.540;2022-07-29T08:21:23;29.62;43.46
67586;SHT31;55785;47.946;20.540;2022-07-29T08:23:49;29.83;42.00
67586;SHT31;55785;47.946;20.540;2022-07-29T08:26:15;29.90;42.80
67586;SHT31;55785;47.946;20.540;2022-07-29T08:28:42;30.00;41.47
67586;SHT31;55785;47.946;20.540;2022-07-29T08:31:07;29.89;40.29
67586;SHT31;55785;47.946;20.540;2022-07-29T08:33:33;29.83;41.23
67586;SHT31;55785;47.946;20.540;2022-07-29T08:35:59;30.02;40.59
67586;SHT31;55785;47.946;20.540;2022-07-29T08:38:24;30.02;40.02
67586;SHT31;55785;47.946;20.540;2022-07-29T08:40:49;30.00;40.37
67586;SHT31;55785;47.946;20.540;2022-07-29T08:43:15;29.89;40.68
67586;SHT31;55785;47.946;20.540;2022-07-29T08:45:48;30.20;41.06
67586;SHT31;55785;47.946;20.540;2022-07-29T08:48:15;30.18;41.29
67586;SHT31;55785;47.946;20.540;2022-07-29T08:50:42;30.40;40.59
67586;SHT31;55785;47.946;20.540;2022-07-29T08:53:10;30.57;40.68
67586;SHT31;55785;47.946;20.540;2022-07-29T08:55:38;30.47;40.02
67586;SHT31;55785;47.946;20.540;2022-07-29T08:58:04;30.38;41.01
67586;SHT31;55785;47.946;20.540;2022-07-29T09:00:30;30.44;40.53
67586;SHT31;55785;47.946;20.540;2022-07-29T09:02:57;30.71;40.08
67586;SHT31;55785;47.946;20.540;2022-07-29T09:05:24;30.71;41.34
67586;SHT31;55785;47.946;20.540;2022-07-29T09:07:51;30.42;40.35
67586;SHT31;55785;47.946;20.540;2022-07-29T09:10:17;30.45;39.74
67586;SHT31;55785;47.946;20.540;2022-07-29T09:12:42;30.67;40.14
67586;SHT31;55785;47.946;20.540;2022-07-29T09:15:08;30.48;40.25
67586;SHT31;55785;47.946;20.540;2022-07-29T09:17:44;30.51;40.27
67586;SHT31;55785;47.946;20.540;2022-07-29T09:20:21;30.45;41.74
67586;SHT31;55785;47.946;20.540;2022-07-29T09:22:46;30.57;40.23
67586;SHT31;55785;47.946;20.540;2022-07-29T09:25:12;30.55;39.54
67586;SHT31;55785;47.946;20.540;2022-07-29T09:27:37;30.92;41.69
67586;SHT31;55785;47.946;20.540;2022-07-29T09:30:06;30.92;39.20
67586;SHT31;55785;47.946;20.540;2022-07-29T09:32:54;31.30;38.95
67586;SHT31;55785;47.946;20.540;2022-07-29T09:35:22;31.19;38.32
67586;SHT31;55785;47.946;20.540;2022-07-29T09:37:47;31.23;39.69
67586;SHT31;55785;47.946;20.540;2022-07-29T09:40:18;31.39;39.93
67586;SHT31;55785;47.946;20.540;2022-07-29T09:42:44;31.26;38.34
67586;SHT31;55785;47.946;20.540;2022-07-29T09:45:10;30.78;39.32
67586;SHT31;55785;47.946;20.540;2022-07-29T09:47:47;31.10;38.03
67586;SHT31;55785;47.946;20.540;2022-07-29T09:50:12;31.26;38.39
67586;SHT31;55785;47.946;20.540;2022-07-29T09:52:48;31.22;38.24
67586;SHT31;55785;47.946;20.540;2022-07-29T09:55:14;31.09;38.34
67586;SHT31;55785;47.946;20.540;2022-07-29T09:57:40;31.31;39.85
67586;SHT31;55785;47.946;20.540;2022-07-29T10:00:07;31.40;38.81
67586;SHT31;55785;47.946;20.540;2022-07-29T10:02:35;31.36;36.57
67586;SHT31;55785;47.946;20.540;2022-07-29T10:05:03;31.33;37.65
67586;SHT31;55785;47.946;20.540;2022-07-29T10:07:53;31.17;38.88
67586;SHT31;55785;47.946;20.540;2022-07-29T10:10:27;31.36;37.47
67586;SHT31;55785;47.946;20.540;2022-07-29T10:13:01;31.26;38.97
67586;SHT31;55785;47.946;20.540;2022-07-29T10:15:28;31.58;37.90
67586;SHT31;55785;47.946;20.540;2022-07-29T10:17:57;31.81;38.00
67586;SHT31;55785;47.946;20.540;2022-07-29T10:20:23;31.89;37.32
67586;SHT31;55785;47.946;20.540;2022-07-29T10:22:50;31.89;36.93
67586;SHT31;55785;47.946;20.540;2022-07-29T10:25:16;31.88;36.69
67586;SHT31;55785;47.946;20.540;2022-07-29T10:27:45;32.06;35.92
67586;SHT31;55785;47.946;20.540;2022-07-29T10:30:13;31.98;35.09
67586;SHT31;55785;47.946;20.540;2022-07-29T10:43:37;31.94;33.66
67586;SHT31;55785;47.946;20.540;2022-07-29T10:46:06;32.22;34.59
67586;SHT31;55785;47.946;20.540;2022-07-29T10:48:32;32.12;33.29
67586;SHT31;55785;47.946;20.540;2022-07-29T10:51:02;32.22;33.65
67586;SHT31;55785;47.946;20.540;2022-07-29T10:53:47;32.24;34.34
67586;SHT31;55785;47.946;20.540;2022-07-29T10:56:29;32.18;33.23
67586;SHT31;55785;47.946;20.540;2022-07-29T11:01:44;32.67;34.23
67586;SHT31;55785;47.946;20.540;2022-07-29T11:04:10;32.72;32.73
67586;SHT31;55785;47.946;20.540;2022-07-29T11:09:25;32.62;33.31
67586;SHT31;55785;47.946;20.540;2022-07-29T11:11:51;32.60;33.79
67586;SHT31;55785;47.946;20.540;2022-07-29T11:17:04;32.60;32.82
67586;SHT31;55785;47.946;20.540;2022-07-29T11:19:29;32.35;31.20
67586;SHT31;55785;47.946;20.540;2022-07-29T11:21:55;32.18;32.28
67586;SHT31;55785;47.946;20.540;2022-07-29T11:24:23;32.14;31.33
67586;SHT31;55785;47.946;20.540;2022-07-29T11:27:12;32.05;31.23
67586;SHT31;55785;47.946;20.540;2022-07-29T11:30:01;32.18;31.04
67586;SHT31;55785;47.946;20.540;2022-07-29T11:32:38;32.42;32.58
67586;SHT31;55785;47.946;20.540;2022-07-29T11:37:39;33.11;29.94
67586;SHT31;55785;47.946;20.540;2022-07-29T11:44:59;33.57;28.75
67586;SHT31;55785;47.946;20.540;2022-07-29T11:47:26;33.35;26.56
67586;SHT31;55785;47.946;20.540;2022-07-29T11:49:51;33.72;26.98
67586;SHT31;55785;47.946;20.540;2022-07-29T11:52:18;33.47;28.72
67586;SHT31;55785;47.946;20.540;2022-07-29T11:54:44;33.42;29.66
67586;SHT31;55785;47.946;20.540;2022-07-29T11:57:11;33.59;30.06
67586;SHT31;55785;47.946;20.540;2022-07-29T11:59:42;33.86;28.66
67586;SHT31;55785;47.946;20.540;2022-07-29T12:02:07;33.90;28.37
67586;SHT31;55785;47.946;20.540;2022-07-29T12:04:33;33.58;27.60
67586;SHT31;55785;47.946;20.540;2022-07-29T12:06:59;33.97;28.96
67586;SHT31;55785;47.946;20.540;2022-07-29T12:09:24;34.05;30.45
67586;SHT31;55785;47.946;20.540;2022-07-29T12:11:56;34.26;30.70
67586;SHT31;55785;47.946;20.540;2022-07-29T12:14:26;34.20;29.86
67586;SHT31;55785;47.946;20.540;2022-07-29T12:16:52;33.72;30.61
67586;SHT31;55785;47.946;20.540;2022-07-29T12:19:17;33.00;32.73
67586;SHT31;55785;47.946;20.540;2022-07-29T12:21:49;32.96;32.40
67586;SHT31;55785;47.946;20.540;2022-07-29T12:24:15;33.61;31.91
67586;SHT31;55785;47.946;20.540;2022-07-29T12:29:16;33.52;31.72
67586;SHT31;55785;47.946;20.540;2022-07-29T12:31:42;33.08;32.54
67586;SHT31;55785;47.946;20.540;2022-07-29T12:34:07;32.42;34.55
67586;SHT31;55785;47.946;20.540;2022-07-29T12:36:33;32.14;32.39
67586;SHT31;55785;47.946;20.540;2022-07-29T12:38:58;31.96;33.60
67586;SHT31;55785;47.946;20.540;2022-07-29T12:41:24;31.96;34.64
67586;SHT31;55785;47.946;20.540;2022-07-29T12:43:53;31.95;33.58
67586;SHT31;55785;47.946;20.540;2022-07-29T12:46:18;31.51;34.41
67586;SHT31;55785;47.946;20.540;2022-07-29T12:48:44;31.80;33.37
67586;SHT31;55785;47.946;20.540;2022-07-29T12:51:10;31.70;33.61
67586;SHT31;55785;47.946;20.540;2022-07-29T12:53:36;31.88;32.56
67586;SHT31;55785;47.946;20.540;2022-07-29T12:56:03;32.01;33.88
67586;SHT31;55785;47.946;20.540;2022-07-29T12:58:33;32.53;32.10
67586;SHT31;55785;47.946;20.540;2022-07-29T13:01:11;33.17;30.81
67586;SHT31;55785;47.946;20.540;2022-07-29T13:03:50;33.45;30.03
67586;SHT31;55785;47.946;20.540;2022-07-29T13:06:35;34.05;31.32
67586;SHT31;55785;47.946;20.540;2022-07-29T13:09:05;34.12;29.31
67586;SHT31;55785;47.946;20.540;2022-07-29T13:11:40;34.09;29.38
67586;SHT31;55785;47.946;20.540;2022-07-29T13:14:07;34.19;29.17
67586;SHT31;55785;47.946;20.540;2022-07-29T13:16:33;34.28;28.30
67586;SHT31;55785;47.946;20.540;2022-07-29T13:19:06;34.51;29.00
67586;SHT31;55785;47.946;20.540;2022-07-29T13:21:32;34.36;28.53
67586;SHT31;55785;47.946;20.540;2022-07-29T13:23:57;33.90;29.13
67586;SHT31;55785;47.946;20.540;2022-07-29T13:26:23;33.79;30.21
67586;SHT31;55785;47.946;20.540;2022-07-29T13:28:48;33.32;30.48
67586;SHT31;55785;47.946;20.540;2022-07-29T13:31:13;33.45;31.80
67586;SHT31;55785;47.946;20.540;2022-07-29T13:33:39;33.22;31.55
67586;SHT31;55785;47.946;20.540;2022-07-29T13:36:04;33.27;30.58
67586;SHT31;55785;47.946;20.540;2022-07-29T13:38:29;33.17;31.43
67586;SHT31;55785;47.946;20.540;2022-07-29T13:40:55;33.15;30.60
67586;SHT31;55785;47.946;20.540;2022-07-29T13:43:20;33.54;30.50
67586;SHT31;55785;47.946;20.540;2022-07-29T13:45:45;33.79;29.87
67586;SHT31;55785;47.946;20.540;2022-07-29T13:48:11;33.73;30.64
67586;SHT31;55785;47.946;20.540;2022-07-29T13:50:36;33.79;31.04
67586;SHT31;55785;47.946;20.540;2022-07-29T13:53:01;33.96;30.50
67586;SHT31;55785;47.946;20.540;2022-07-29T13:55:27;34.12;31.26
67586;SHT31;55785;47.946;20.540;2022-07-29T13:57:52;33.86;30.18
67586;SHT31;55785;47.946;20.540;2022-07-29T14:00:17;33.63;31.36
67586;SHT31;55785;47.946;20.540;2022-07-29T14:02:43;33.55;32.04
67586;SHT31;55785;47.946;20.540;2022-07-29T14:05:08;33.45;31.15
67586;SHT31;55785;47.946;20.540;2022-07-29T14:07:34;33.51;32.26
67586;SHT31;55785;47.946;20.540;2022-07-29T14:09:59;33.76;31.79
67586;SHT31;55785;47.946;20.540;2022-07-29T14:12:24;33.48;32.49
67586;SHT31;55785;47.946;20.540;2022-07-29T14:14:50;32.93;32.70
67586;SHT31;55785;47.946;20.540;2022-07-29T14:17:15;33.44;32.78
67586;SHT31;55785;47.946;20.540;2022-07-29T14:19:41;33.48;31.78
67586;SHT31;55785;47.946;20.540;2022-07-29T14:22:07;33.90;31.83
67586;SHT31;55785;47.946;20.540;2022-07-29T14:24:33;33.61;31.66
67586;SHT31;55785;47.946;20.540;2022-07-29T14:26:58;33.68;31.59
67586;SHT31;55785;47.946;20.540;2022-07-29T14:29:24;33.80;31.89
67586;SHT31;55785;47.946;20.540;2022-07-29T14:31:49;33.63;31.88
67586;SHT31;55785;47.946;20.540;2022-07-29T14:34:14;33.01;32.89
67586;SHT31;55785;47.946;20.540;2022-07-29T14:36:39;32.99;32.82
67586;SHT31;55785;47.946;20.540;2022-07-29T14:39:05;32.86;33.02
67586;SHT31;55785;47.946;20.540;2022-07-29T14:41:30;33.11;32.90
67586;SHT31;55785;47.946;20.540;2022-07-29T14:43:55;33.52;31.71
67586;SHT31;55785;47.946;20.540;2022-07-29T14:46:21;33.78;31.93
67586;SHT31;55785;47.946;20.540;2022-07-29T14:48:46;33.62;31.32
67586;SHT31;55785;47.946;20.540;2022-07-29T14:51:11;33.62;31.14
67586;SHT31;55785;47.946;20.540;2022-07-29T14:53:37;33.52;31.80
67586;SHT31;55785;47.946;20.540;2022-07-29T14:56:02;33.75;31.37
67586;SHT31;55785;47.946;20.540;2022-07-29T14:58:28;33.65;31.26
67586;SHT31;55785;47.946;20.540;2022-07-29T15:00:53;33.68;31.06
67586;SHT31;55785;47.946;20.540;2022-07-29T15:03:18;33.82;30.58
67586;SHT31;55785;47.946;20.540;2022-07-29T15:05:44;33.83;30.62
67586;SHT31;55785;47.946;20.540;2022-07-29T15:08:09;33.69;31.21
67586;SHT31;55785;47.946;20.540;2022-07-29T15:10:34;33.55;31.15
67586;SHT31;55785;47.946;20.540;2022-07-29T15:13:00;33.41;31.37
67586;SHT31;55785;47.946;20.540;2022-07-29T15:15:25;32.99;31.55
67586;SHT31;55785;47.946;20.540;2022-07-29T15:17:51;33.06;31.62
67586;SHT31;55785;47.946;20.540;2022-07-29T15:20:16;33.25;31.16
67586;SHT31;55785;47.946;20.540;2022-07-29T15:22:41;33.32;32.65
67586;SHT31;55785;47.946;20.540;2022-07-29T15:25:07;33.42;32.66
67586;SHT31;55785;47.946;20.540;2022-07-29T15:27:32;33.62;33.40
67586;SHT31;55785;47.946;20.540;2022-07-29T15:29:58;33.69;31.38
67586;SHT31;55785;47.946;20.540;2022-07-29T15:32:23;33.51;32.18
67586;SHT31;55785;47.946;20.540;2022-07-29T15:34:48;33.20;33.34
67586;SHT31;55785;47.946;20.540;2022-07-29T15:37:14;33.17;33.64
67586;SHT31;55785;47.946;20.540;2022-07-29T15:39:39;33.07;33.63
67586;SHT31;55785;47.946;20.540;2022-07-29T15:42:04;32.97;33.53
67586;SHT31;55785;47.946;20.540;2022-07-29T15:44:30;32.84;33.35
67586;SHT31;55785;47.946;20.540;2022-07-29T15:46:55;33.01;33.53
67586;SHT31;55785;47.946;20.540;2022-07-29T15:49:20;32.84;33.71
67586;SHT31;55785;47.946;20.540;2022-07-29T15:51:45;32.86;33.94
67586;SHT31;55785;47.946;20.540;2022-07-29T15:54:11;32.93;33.05